Workman, Minnesota
Current Conditions -  °F | °C
As of 8:13 AM on Monday 24 Nov 2014 (Local Time) from KAIT Reporting Station
Overcast Overcast  
Wind Chill: 14°   Ceiling: 1200
Heat Index: 23°   Visibility: 10mi
Dew Point: 18°   Wind: 8mph
Humidity: 80%   Direction: 310°NW
Pressure: 29.39"   Gusts: 18mph
Location:  46.7281°N, 93.6101°W
Report Text: KAIT 241413Z AUTO 31007G16KT 290V350 10SM OVC012 M05/M08 A2939 RMK AO2
Loading
Personal Weather Stations






























Interactive Weather Map New forecast layout! Learn more

10-Day Weather Forecast

Advertisements
Track Severe Weather on mobile